sensor_id;sensor_type;location;lat;lon;timestamp;pressure;altitude;pressure_sealevel;temperature;humidity
21869;BME280;11099;41.564;23.296;2023-07-09T00:00:04;97920.81;;;23.78;57.22
21869;BME280;11099;41.564;23.296;2023-07-09T00:02:31;97852.38;;;23.55;56.51
21869;BME280;11099;41.564;23.296;2023-07-09T00:04:57;97899.47;;;23.84;57.02
21869;BME280;11099;41.564;23.296;2023-07-09T00:07:31;97900.09;;;23.49;57.98
21869;BME280;11099;41.564;23.296;2023-07-09T00:09:57;97907.22;;;23.78;57.43
21869;BME280;11099;41.564;23.296;2023-07-09T00:12:23;97913.47;;;23.89;56.86
21869;BME280;11099;41.564;23.296;2023-07-09T00:14:49;97910.06;;;24.07;56.38
21869;BME280;11099;41.564;23.296;2023-07-09T00:17:26;97783.84;;;22.92;57.30
21869;BME280;11099;41.564;23.296;2023-07-09T00:19:52;97933.28;;;23.79;56.84
21869;BME280;11099;41.564;23.296;2023-07-09T00:22:18;97920.84;;;23.89;57.04
21869;BME280;11099;41.564;23.296;2023-07-09T00:24:45;97868.66;;;23.40;57.36
21869;BME280;11099;41.564;23.296;2023-07-09T00:27:13;97920.81;;;23.78;57.08
21869;BME280;11099;41.564;23.296;2023-07-09T00:29:41;97913.09;;;23.87;56.87
21869;BME280;11099;41.564;23.296;2023-07-09T00:32:18;97917.22;;;23.56;57.88
21869;BME280;11099;41.564;23.296;2023-07-09T00:34:49;97867.75;;;23.22;58.04
21869;BME280;11099;41.564;23.296;2023-07-09T00:37:24;97874.38;;;23.28;57.51
21869;BME280;11099;41.564;23.296;2023-07-09T00:39:52;97929.75;;;23.79;57.67
21869;BME280;11099;41.564;23.296;2023-07-09T00:42:19;97889.66;;;23.61;57.68
21869;BME280;11099;41.564;23.296;2023-07-09T00:44:50;97906.69;;;23.44;58.39
21869;BME280;11099;41.564;23.296;2023-07-09T00:47:30;97887.69;;;23.48;58.10
21869;BME280;11099;41.564;23.296;2023-07-09T00:50:08;97920.72;;;23.53;59.35
21869;BME280;11099;41.564;23.296;2023-07-09T00:52:40;97924.66;;;23.01;62.39
21869;BME280;11099;41.564;23.296;2023-07-09T00:55:13;97929.00;;;23.12;62.05
21869;BME280;11099;41.564;23.296;2023-07-09T00:57:43;97858.31;;;22.43;63.27
21869;BME280;11099;41.564;23.296;2023-07-09T01:00:15;97903.94;;;22.78;62.58
21869;BME280;11099;41.564;23.296;2023-07-09T01:02:46;97813.94;;;22.18;63.06
21869;BME280;11099;41.564;23.296;2023-07-09T01:05:14;97791.47;;;21.76;64.07
21869;BME280;11099;41.564;23.296;2023-07-09T01:07:42;97897.59;;;22.60;64.06
21869;BME280;11099;41.564;23.296;2023-07-09T01:10:12;97806.44;;;22.04;63.45
21869;BME280;11099;41.564;23.296;2023-07-09T01:12:39;97922.53;;;22.76;63.05
21869;BME280;11099;41.564;23.296;2023-07-09T01:15:05;97909.88;;;22.91;61.82
21869;BME280;11099;41.564;23.296;2023-07-09T01:17:33;97878.03;;;22.88;60.76
21869;BME280;11099;41.564;23.296;2023-07-09T01:19:59;97928.50;;;22.96;61.95
21869;BME280;11099;41.564;23.296;2023-07-09T01:22:25;97903.97;;;22.00;66.52
21869;BME280;11099;41.564;23.296;2023-07-09T01:25:03;97916.97;;;22.58;66.28
21869;BME280;11099;41.564;23.296;2023-07-09T01:27:50;97937.88;;;22.17;68.27
21869;BME280;11099;41.564;23.296;2023-07-09T01:30:37;97932.19;;;21.96;69.22
21869;BME280;11099;41.564;23.296;2023-07-09T01:33:03;97941.47;;;22.28;68.06
21869;BME280;11099;41.564;23.296;2023-07-09T01:35:34;97936.94;;;22.06;67.81
21869;BME280;11099;41.564;23.296;2023-07-09T01:38:00;97847.88;;;21.67;67.26
21869;BME280;11099;41.564;23.296;2023-07-09T01:40:27;97917.81;;;22.25;66.55
21869;BME280;11099;41.564;23.296;2023-07-09T01:42:53;97942.47;;;22.13;67.03
21869;BME280;11099;41.564;23.296;2023-07-09T01:45:21;97943.91;;;22.41;66.51
21869;BME280;11099;41.564;23.296;2023-07-09T01:47:46;97943.22;;;22.47;66.03
21869;BME280;11099;41.564;23.296;2023-07-09T01:50:12;97953.31;;;22.50;66.73
21869;BME280;11099;41.564;23.296;2023-07-09T01:52:40;97941.03;;;22.23;67.84
21869;BME280;11099;41.564;23.296;2023-07-09T01:55:09;97898.28;;;22.09;67.08
21869;BME280;11099;41.564;23.296;2023-07-09T01:57:35;97943.94;;;21.73;70.03
21869;BME280;11099;41.564;23.296;2023-07-09T02:00:06;97928.97;;;21.53;70.71
21869;BME280;11099;41.564;23.296;2023-07-09T02:02:36;97913.94;;;21.89;69.01
21869;BME280;11099;41.564;23.296;2023-07-09T02:05:05;97957.41;;;21.66;71.02
21869;BME280;11099;41.564;23.296;2023-07-09T02:07:30;97959.81;;;21.75;70.66
21869;BME280;11099;41.564;23.296;2023-07-09T02:09:57;97958.81;;;21.56;71.22
21869;BME280;11099;41.564;23.296;2023-07-09T02:12:23;97885.53;;;21.46;70.12
21869;BME280;11099;41.564;23.296;2023-07-09T02:14:49;97891.03;;;21.53;68.98
21869;BME280;11099;41.564;23.296;2023-07-09T02:17:15;97799.81;;;20.97;68.34
21869;BME280;11099;41.564;23.296;2023-07-09T02:19:41;97962.97;;;21.80;68.99
21869;BME280;11099;41.564;23.296;2023-07-09T02:22:07;97901.25;;;21.33;70.34
21869;BME280;11099;41.564;23.296;2023-07-09T02:24:33;97953.88;;;21.62;70.17
21869;BME280;11099;41.564;23.296;2023-07-09T02:27:05;97890.72;;;21.01;70.79
21869;BME280;11099;41.564;23.296;2023-07-09T02:29:32;97958.03;;;21.86;69.57
21869;BME280;11099;41.564;23.296;2023-07-09T02:31:58;97837.84;;;20.55;71.78
21869;BME280;11099;41.564;23.296;2023-07-09T02:34:25;97920.56;;;21.62;69.08
21869;BME280;11099;41.564;23.296;2023-07-09T02:36:55;97949.75;;;21.75;68.55
21869;BME280;11099;41.564;23.296;2023-07-09T02:39:21;97823.00;;;20.98;67.86
21869;BME280;11099;41.564;23.296;2023-07-09T02:41:48;97936.81;;;21.62;67.95
21869;BME280;11099;41.564;23.296;2023-07-09T02:44:14;97892.66;;;21.57;67.42
21869;BME280;11099;41.564;23.296;2023-07-09T02:46:39;97899.41;;;21.71;66.40
21869;BME280;11099;41.564;23.296;2023-07-09T02:49:06;97857.28;;;21.43;66.69
21869;BME280;11099;41.564;23.296;2023-07-09T02:51:32;97972.03;;;22.22;65.93
21869;BME280;11099;41.564;23.296;2023-07-09T02:54:00;97964.72;;;22.26;65.61
21869;BME280;11099;41.564;23.296;2023-07-09T02:56:26;97960.78;;;21.90;68.55
21869;BME280;11099;41.564;23.296;2023-07-09T02:58:52;97878.50;;;20.85;70.76
21869;BME280;11099;41.564;23.296;2023-07-09T03:01:18;97975.00;;;21.53;71.34
21869;BME280;11099;41.564;23.296;2023-07-09T03:03:47;97973.34;;;21.71;71.46
21869;BME280;11099;41.564;23.296;2023-07-09T03:06:12;97982.72;;;21.77;71.63
21869;BME280;11099;41.564;23.296;2023-07-09T03:08:38;97901.56;;;21.58;70.43
21869;BME280;11099;41.564;23.296;2023-07-09T03:11:11;97974.53;;;22.07;70.48
21869;BME280;11099;41.564;23.296;2023-07-09T03:13:37;97954.53;;;22.16;69.10
21869;BME280;11099;41.564;23.296;2023-07-09T03:16:04;97849.25;;;20.94;71.17
21869;BME280;11099;41.564;23.296;2023-07-09T03:18:30;97980.09;;;22.18;70.23
21869;BME280;11099;41.564;23.296;2023-07-09T03:20:56;97962.22;;;21.50;72.99
21869;BME280;11099;41.564;23.296;2023-07-09T03:23:22;97989.13;;;21.96;71.98
21869;BME280;11099;41.564;23.296;2023-07-09T03:25:48;97950.75;;;21.60;72.51
21869;BME280;11099;41.564;23.296;2023-07-09T03:28:13;97916.72;;;21.33;72.51
21869;BME280;11099;41.564;23.296;2023-07-09T03:30:43;97898.84;;;21.58;71.15
21869;BME280;11099;41.564;23.296;2023-07-09T03:33:10;97980.31;;;21.72;73.42
21869;BME280;11099;41.564;23.296;2023-07-09T03:35:36;97944.03;;;21.50;73.38
21869;BME280;11099;41.564;23.296;2023-07-09T03:38:04;97977.97;;;21.71;73.25
21869;BME280;11099;41.564;23.296;2023-07-09T03:40:30;97919.56;;;21.73;70.54
21869;BME280;11099;41.564;23.296;2023-07-09T03:42:56;97942.31;;;21.65;72.45
21869;BME280;11099;41.564;23.296;2023-07-09T03:45:22;97924.59;;;21.18;74.12
21869;BME280;11099;41.564;23.296;2023-07-09T03:47:48;97860.56;;;20.73;75.21
21869;BME280;11099;41.564;23.296;2023-07-09T03:50:13;97824.09;;;20.40;72.75
21869;BME280;11099;41.564;23.296;2023-07-09T03:52:39;97909.09;;;21.72;71.44
21869;BME280;11099;41.564;23.296;2023-07-09T03:55:05;97887.56;;;21.52;69.93
21869;BME280;11099;41.564;23.296;2023-07-09T03:57:31;98003.75;;;23.47;66.28
21869;BME280;11099;41.564;23.296;2023-07-09T03:59:57;97990.66;;;23.63;63.75
21869;BME280;11099;41.564;23.296;2023-07-09T04:02:22;97990.63;;;24.51;60.34
21869;BME280;11099;41.564;23.296;2023-07-09T04:04:48;97996.47;;;24.67;58.90
21869;BME280;11099;41.564;23.296;2023-07-09T04:07:14;97995.69;;;24.81;58.12
21869;BME280;11099;41.564;23.296;2023-07-09T04:09:40;98002.19;;;24.26;60.46
21869;BME280;11099;41.564;23.296;2023-07-09T04:12:06;97995.31;;;25.04;58.41
21869;BME280;11099;41.564;23.296;2023-07-09T04:14:32;97905.78;;;24.09;60.02
21869;BME280;11099;41.564;23.296;2023-07-09T04:16:58;98005.75;;;24.37;61.04
21869;BME280;11099;41.564;23.296;2023-07-09T04:19:24;97980.13;;;24.60;59.66
21869;BME280;11099;41.564;23.296;2023-07-09T04:21:49;97984.84;;;25.09;57.72
21869;BME280;11099;41.564;23.296;2023-07-09T04:24:17;97997.19;;;25.64;55.05
21869;BME280;11099;41.564;23.296;2023-07-09T04:29:29;98012.38;;;27.19;50.86
21869;BME280;11099;41.564;23.296;2023-07-09T04:31:55;97903.34;;;26.35;48.47
21869;BME280;11099;41.564;23.296;2023-07-09T04:34:20;97980.97;;;27.38;46.72
21869;BME280;11099;41.564;23.296;2023-07-09T04:36:46;97991.03;;;26.47;48.93
21869;BME280;11099;41.564;23.296;2023-07-09T04:39:11;97995.66;;;27.54;46.27
21869;BME280;11099;41.564;23.296;2023-07-09T04:41:37;97929.91;;;27.31;46.00
21869;BME280;11099;41.564;23.296;2023-07-09T04:44:03;98017.22;;;26.97;47.01
21869;BME280;11099;41.564;23.296;2023-07-09T04:46:28;97909.72;;;27.18;45.18
21869;BME280;11099;41.564;23.296;2023-07-09T04:48:54;97997.09;;;27.70;45.10
21869;BME280;11099;41.564;23.296;2023-07-09T04:51:21;98010.72;;;27.32;46.52
21869;BME280;11099;41.564;23.296;2023-07-09T04:53:47;98020.38;;;26.95;49.45
21869;BME280;11099;41.564;23.296;2023-07-09T04:56:12;98016.66;;;28.29;45.18
21869;BME280;11099;41.564;23.296;2023-07-09T04:58:38;98010.03;;;29.35;43.09
21869;BME280;11099;41.564;23.296;2023-07-09T05:01:04;98008.44;;;28.29;44.31
21869;BME280;11099;41.564;23.296;2023-07-09T05:03:36;98008.47;;;29.34;41.77
21869;BME280;11099;41.564;23.296;2023-07-09T05:06:06;98010.69;;;28.96;42.57
21869;BME280;11099;41.564;23.296;2023-07-09T05:08:33;98012.59;;;28.14;43.10
21869;BME280;11099;41.564;23.296;2023-07-09T05:11:02;97964.69;;;27.65;43.68
21869;BME280;11099;41.564;23.296;2023-07-09T05:13:35;98014.72;;;28.60;42.36
21869;BME280;11099;41.564;23.296;2023-07-09T05:16:04;97988.94;;;29.52;40.83
21869;BME280;11099;41.564;23.296;2023-07-09T05:18:33;97989.69;;;30.15;38.92
21869;BME280;11099;41.564;23.296;2023-07-09T05:21:02;98012.97;;;29.44;40.67
21869;BME280;11099;41.564;23.296;2023-07-09T05:23:31;97945.31;;;28.44;41.99
21869;BME280;11099;41.564;23.296;2023-07-09T05:26:04;97970.47;;;29.96;39.46
21869;BME280;11099;41.564;23.296;2023-07-09T05:28:33;97972.16;;;27.57;43.45
21869;BME280;11099;41.564;23.296;2023-07-09T05:31:01;98021.78;;;28.27;42.83
21869;BME280;11099;41.564;23.296;2023-07-09T05:33:34;97956.66;;;27.09;43.59
21869;BME280;11099;41.564;23.296;2023-07-09T05:36:08;98002.16;;;28.63;43.60
21869;BME280;11099;41.564;23.296;2023-07-09T05:38:43;97966.63;;;28.56;41.57
21869;BME280;11099;41.564;23.296;2023-07-09T05:41:18;98010.84;;;29.32;40.78
21869;BME280;11099;41.564;23.296;2023-07-09T05:43:45;98014.91;;;29.47;40.29
21869;BME280;11099;41.564;23.296;2023-07-09T05:46:12;97963.13;;;29.73;39.34
21869;BME280;11099;41.564;23.296;2023-07-09T05:48:37;97924.56;;;28.46;41.33
21869;BME280;11099;41.564;23.296;2023-07-09T05:51:03;98025.66;;;29.14;41.11
21869;BME280;11099;41.564;23.296;2023-07-09T05:53:28;98021.50;;;29.50;40.42
21869;BME280;11099;41.564;23.296;2023-07-09T05:55:55;97999.34;;;28.67;41.74
21869;BME280;11099;41.564;23.296;2023-07-09T05:58:22;97999.13;;;29.75;39.45
21869;BME280;11099;41.564;23.296;2023-07-09T06:00:54;98016.81;;;30.50;38.58
21869;BME280;11099;41.564;23.296;2023-07-09T06:03:24;98021.63;;;30.62;38.12
21869;BME280;11099;41.564;23.296;2023-07-09T06:05:50;98005.38;;;30.35;38.65
21869;BME280;11099;41.564;23.296;2023-07-09T06:08:16;97987.88;;;28.75;41.02
21869;BME280;11099;41.564;23.296;2023-07-09T06:10:57;98012.78;;;29.35;39.65
21869;BME280;11099;41.564;23.296;2023-07-09T06:13:24;97935.66;;;28.86;40.34
21869;BME280;11099;41.564;23.296;2023-07-09T06:15:54;98010.97;;;30.64;37.95
21869;BME280;11099;41.564;23.296;2023-07-09T06:18:24;98002.84;;;30.60;37.24
21869;BME280;11099;41.564;23.296;2023-07-09T06:20:58;98007.28;;;29.78;39.67
21869;BME280;11099;41.564;23.296;2023-07-09T06:23:31;97984.28;;;30.12;38.46
21869;BME280;11099;41.564;23.296;2023-07-09T06:26:00;97965.88;;;30.09;38.36
21869;BME280;11099;41.564;23.296;2023-07-09T06:28:28;97995.09;;;30.19;38.72
21869;BME280;11099;41.564;23.296;2023-07-09T06:30:54;97976.22;;;30.21;38.76
21869;BME280;11099;41.564;23.296;2023-07-09T06:33:20;97988.41;;;30.20;38.85
21869;BME280;11099;41.564;23.296;2023-07-09T06:35:50;98006.34;;;30.44;38.55
21869;BME280;11099;41.564;23.296;2023-07-09T06:38:17;98004.63;;;30.14;39.26
21869;BME280;11099;41.564;23.296;2023-07-09T06:40:43;97931.34;;;28.34;41.50
21869;BME280;11099;41.564;23.296;2023-07-09T06:43:09;97982.78;;;29.24;41.30
21869;BME280;11099;41.564;23.296;2023-07-09T06:45:35;97995.75;;;28.46;41.44
21869;BME280;11099;41.564;23.296;2023-07-09T06:48:01;97893.81;;;28.35;41.73
21869;BME280;11099;41.564;23.296;2023-07-09T06:50:26;97891.38;;;29.11;40.42
21869;BME280;11099;41.564;23.296;2023-07-09T06:52:52;97995.66;;;28.53;41.45
21869;BME280;11099;41.564;23.296;2023-07-09T06:55:17;97956.75;;;29.76;39.65
21869;BME280;11099;41.564;23.296;2023-07-09T06:57:43;97975.38;;;30.04;39.36
21869;BME280;11099;41.564;23.296;2023-07-09T07:00:09;97934.59;;;29.47;39.20
21869;BME280;11099;41.564;23.296;2023-07-09T07:02:34;97972.63;;;29.01;40.43
21869;BME280;11099;41.564;23.296;2023-07-09T07:05:00;97944.72;;;28.56;41.44
21869;BME280;11099;41.564;23.296;2023-07-09T07:07:25;97978.31;;;29.34;40.94
21869;BME280;11099;41.564;23.296;2023-07-09T07:09:51;97984.66;;;30.30;38.88
21869;BME280;11099;41.564;23.296;2023-07-09T07:12:25;97942.28;;;29.75;38.49
21869;BME280;11099;41.564;23.296;2023-07-09T07:14:52;97972.50;;;27.63;40.19
21869;BME280;11099;41.564;23.296;2023-07-09T07:17:18;97883.31;;;27.42;40.65
21869;BME280;11099;41.564;23.296;2023-07-09T07:19:43;97966.38;;;27.51;41.79
21869;BME280;11099;41.564;23.296;2023-07-09T07:22:09;97923.09;;;28.07;40.84
21869;BME280;11099;41.564;23.296;2023-07-09T07:24:34;97949.25;;;28.43;38.92
21869;BME280;11099;41.564;23.296;2023-07-09T07:27:00;97893.84;;;27.02;41.51
21869;BME280;11099;41.564;23.296;2023-07-09T07:29:25;97821.38;;;27.28;40.51
21869;BME280;11099;41.564;23.296;2023-07-09T07:31:51;97957.38;;;28.19;40.27
21869;BME280;11099;41.564;23.296;2023-07-09T07:34:16;97896.22;;;28.02;40.82
21869;BME280;11099;41.564;23.296;2023-07-09T07:36:42;97856.16;;;28.16;39.21
21869;BME280;11099;41.564;23.296;2023-07-09T07:39:07;97913.44;;;28.30;39.95
21869;BME280;11099;41.564;23.296;2023-07-09T07:41:33;97889.78;;;27.55;40.74
21869;BME280;11099;41.564;23.296;2023-07-09T07:43:58;97933.50;;;28.74;40.03
21869;BME280;11099;41.564;23.296;2023-07-09T07:46:23;97911.81;;;28.59;39.48
21869;BME280;11099;41.564;23.296;2023-07-09T07:48:49;97840.91;;;28.15;40.17
21869;BME280;11099;41.564;23.296;2023-07-09T07:51:14;97917.44;;;27.95;40.88
21869;BME280;11099;41.564;23.296;2023-07-09T07:53:40;97894.13;;;28.41;40.21
21869;BME280;11099;41.564;23.296;2023-07-09T07:56:05;97880.59;;;28.77;39.19
21869;BME280;11099;41.564;23.296;2023-07-09T07:58:31;97938.63;;;29.19;39.64
21869;BME280;11099;41.564;23.296;2023-07-09T08:00:57;97911.59;;;29.60;38.24
21869;BME280;11099;41.564;23.296;2023-07-09T08:03:24;97919.50;;;28.92;38.81
21869;BME280;11099;41.564;23.296;2023-07-09T08:05:50;97886.56;;;28.21;39.92
21869;BME280;11099;41.564;23.296;2023-07-09T08:08:15;97915.63;;;28.42;40.38
21869;BME280;11099;41.564;23.296;2023-07-09T08:10:41;97944.84;;;28.99;40.16
21869;BME280;11099;41.564;23.296;2023-07-09T08:13:06;97878.13;;;28.63;39.35
21869;BME280;11099;41.564;23.296;2023-07-09T08:15:32;97936.03;;;29.31;38.75
21869;BME280;11099;41.564;23.296;2023-07-09T08:17:58;97935.41;;;29.24;39.34
21869;BME280;11099;41.564;23.296;2023-07-09T08:20:23;97921.03;;;29.16;39.15
21869;BME280;11099;41.564;23.296;2023-07-09T08:22:49;97892.03;;;29.19;39.36
21869;BME280;11099;41.564;23.296;2023-07-09T08:25:14;97924.88;;;29.82;37.62
21869;BME280;11099;41.564;23.296;2023-07-09T08:27:40;97932.88;;;29.33;37.92
21869;BME280;11099;41.564;23.296;2023-07-09T08:30:06;97942.25;;;29.35;37.56
21869;BME280;11099;41.564;23.296;2023-07-09T08:32:32;97909.69;;;29.77;37.85
21869;BME280;11099;41.564;23.296;2023-07-09T08:34:57;97931.56;;;29.41;36.52
21869;BME280;11099;41.564;23.296;2023-07-09T08:37:22;97886.84;;;30.00;36.50
21869;BME280;11099;41.564;23.296;2023-07-09T08:39:48;97917.38;;;30.22;36.25
21869;BME280;11099;41.564;23.296;2023-07-09T08:42:26;97925.38;;;30.65;37.19
21869;BME280;11099;41.564;23.296;2023-07-09T08:45:09;97924.34;;;30.59;36.70
21869;BME280;11099;41.564;23.296;2023-07-09T08:47:52;97922.34;;;29.91;37.28
21869;BME280;11099;41.564;23.296;2023-07-09T08:50:24;97891.13;;;30.37;36.87
21869;BME280;11099;41.564;23.296;2023-07-09T08:52:57;97838.47;;;29.34;36.51
21869;BME280;11099;41.564;23.296;2023-07-09T08:55:27;97926.06;;;30.53;35.59
21869;BME280;11099;41.564;23.296;2023-07-09T08:58:05;97921.31;;;30.21;37.11
21869;BME280;11099;41.564;23.296;2023-07-09T09:00:44;97915.06;;;30.86;35.77
21869;BME280;11099;41.564;23.296;2023-07-09T09:03:24;97926.56;;;30.64;36.77
21869;BME280;11099;41.564;23.296;2023-07-09T09:05:53;97894.28;;;30.36;34.64
21869;BME280;11099;41.564;23.296;2023-07-09T09:13:52;97934.00;;;30.84;35.46
21869;BME280;11099;41.564;23.296;2023-07-09T09:16:26;97924.53;;;30.52;35.20
21869;BME280;11099;41.564;23.296;2023-07-09T09:18:57;97924.84;;;30.02;35.63
21869;BME280;11099;41.564;23.296;2023-07-09T09:21:37;97905.84;;;31.09;33.91
21869;BME280;11099;41.564;23.296;2023-07-09T09:24:32;97916.56;;;30.74;34.63
21869;BME280;11099;41.564;23.296;2023-07-09T09:27:00;97917.38;;;30.87;34.95
21869;BME280;11099;41.564;23.296;2023-07-09T09:29:26;97930.34;;;31.03;34.51
21869;BME280;11099;41.564;23.296;2023-07-09T09:31:54;97922.69;;;31.69;33.38
21869;BME280;11099;41.564;23.296;2023-07-09T09:34:25;97915.78;;;31.35;34.69
21869;BME280;11099;41.564;23.296;2023-07-09T09:36:52;97913.56;;;31.14;34.05
21869;BME280;11099;41.564;23.296;2023-07-09T09:39:20;97873.09;;;30.20;36.15
21869;BME280;11099;41.564;23.296;2023-07-09T09:41:46;97916.28;;;30.52;36.00
21869;BME280;11099;41.564;23.296;2023-07-09T09:44:25;97902.03;;;30.90;35.95
21869;BME280;11099;41.564;23.296;2023-07-09T09:46:52;97886.09;;;31.43;33.76
21869;BME280;11099;41.564;23.296;2023-07-09T09:49:18;97784.00;;;30.37;34.31
21869;BME280;11099;41.564;23.296;2023-07-09T09:51:46;97848.44;;;31.11;34.77
21869;BME280;11099;41.564;23.296;2023-07-09T09:54:17;97891.53;;;31.72;32.97
21869;BME280;11099;41.564;23.296;2023-07-09T09:56:43;97873.66;;;31.51;32.70
21869;BME280;11099;41.564;23.296;2023-07-09T09:59:30;97831.84;;;31.14;33.84
21869;BME280;11099;41.564;23.296;2023-07-09T10:02:01;97882.00;;;31.47;34.04
21869;BME280;11099;41.564;23.296;2023-07-09T10:04:28;97867.63;;;31.43;34.28
21869;BME280;11099;41.564;23.296;2023-07-09T10:07:02;97879.72;;;31.46;34.18
21869;BME280;11099;41.564;23.296;2023-07-09T10:14:46;97872.97;;;32.02;34.02
21869;BME280;11099;41.564;23.296;2023-07-09T10:17:36;97878.81;;;31.91;35.22
21869;BME280;11099;41.564;23.296;2023-07-09T10:27:57;97875.88;;;31.98;33.47
21869;BME280;11099;41.564;23.296;2023-07-09T10:33:12;97871.78;;;32.15;33.40
21869;BME280;11099;41.564;23.296;2023-07-09T10:35:53;97874.81;;;31.79;34.09
21869;BME280;11099;41.564;23.296;2023-07-09T10:41:10;97853.94;;;32.07;34.24
21869;BME280;11099;41.564;23.296;2023-07-09T10:43:52;97851.91;;;32.33;33.76
21869;BME280;11099;41.564;23.296;2023-07-09T10:46:25;97852.63;;;32.37;33.68
21869;BME280;11099;41.564;23.296;2023-07-09T10:48:53;97845.06;;;31.61;34.52
21869;BME280;11099;41.564;23.296;2023-07-09T10:51:42;97848.41;;;32.33;33.73
21869;BME280;11099;41.564;23.296;2023-07-09T10:56:56;97836.06;;;31.86;34.60
21869;BME280;11099;41.564;23.296;2023-07-09T10:59:36;97817.81;;;31.92;34.80
21869;BME280;11099;41.564;23.296;2023-07-09T11:02:23;97831.13;;;32.07;33.86
21869;BME280;11099;41.564;23.296;2023-07-09T11:05:01;97841.91;;;32.26;33.93
21869;BME280;11099;41.564;23.296;2023-07-09T11:07:33;97831.47;;;32.09;34.05
21869;BME280;11099;41.564;23.296;2023-07-09T11:10:04;97794.06;;;32.33;32.69
21869;BME280;11099;41.564;23.296;2023-07-09T11:12:43;97813.22;;;32.49;32.37
21869;BME280;11099;41.564;23.296;2023-07-09T11:15:12;97818.72;;;32.84;32.60
21869;BME280;11099;41.564;23.296;2023-07-09T11:17:43;97821.06;;;32.86;32.03
21869;BME280;11099;41.564;23.296;2023-07-09T11:20:20;97827.03;;;32.24;33.93
21869;BME280;11099;41.564;23.296;2023-07-09T11:23:02;97812.25;;;32.31;33.37
21869;BME280;11099;41.564;23.296;2023-07-09T11:25:42;97822.81;;;32.79;32.80
21869;BME280;11099;41.564;23.296;2023-07-09T11:28:08;97787.16;;;32.16;32.38
21869;BME280;11099;41.564;23.296;2023-07-09T11:30:46;97787.16;;;32.63;31.88
21869;BME280;11099;41.564;23.296;2023-07-09T11:33:44;97809.94;;;32.76;nan
21869;BME280;11099;41.564;23.296;2023-07-09T11:36:10;97798.19;;;32.85;31.59
21869;BME280;11099;41.564;23.296;2023-07-09T11:38:54;97774.56;;;32.75;32.41
21869;BME280;11099;41.564;23.296;2023-07-09T11:41:41;97778.53;;;32.96;31.55
21869;BME280;11099;41.564;23.296;2023-07-09T11:49:15;97773.38;;;32.85;30.25
21869;BME280;11099;41.564;23.296;2023-07-09T11:51:46;97777.13;;;32.35;31.15
21869;BME280;11099;41.564;23.296;2023-07-09T11:54:14;97779.59;;;32.89;30.83
21869;BME280;11099;41.564;23.296;2023-07-09T11:56:40;97782.00;;;32.65;29.94
21869;BME280;11099;41.564;23.296;2023-07-09T11:59:05;97743.66;;;32.58;30.95
21869;BME280;11099;41.564;23.296;2023-07-09T12:01:39;97755.41;;;32.24;31.81
21869;BME280;11099;41.564;23.296;2023-07-09T12:04:06;97732.69;;;31.85;31.67
21869;BME280;11099;41.564;23.296;2023-07-09T12:06:33;97698.44;;;31.73;31.96
21869;BME280;11099;41.564;23.296;2023-07-09T12:08:58;97754.97;;;32.25;31.32
21869;BME280;11099;41.564;23.296;2023-07-09T12:11:30;97754.47;;;32.74;30.97
21869;BME280;11099;41.564;23.296;2023-07-09T12:14:13;97727.31;;;32.86;30.70
21869;BME280;11099;41.564;23.296;2023-07-09T12:16:43;97746.03;;;32.91;30.84
21869;BME280;11099;41.564;23.296;2023-07-09T12:19:16;97743.25;;;33.13;31.27
21869;BME280;11099;41.564;23.296;2023-07-09T12:21:44;97725.75;;;32.85;30.30
21869;BME280;11099;41.564;23.296;2023-07-09T12:24:23;97743.72;;;32.89;31.13
21869;BME280;11099;41.564;23.296;2023-07-09T12:26:54;97743.03;;;32.76;29.71
21869;BME280;11099;41.564;23.296;2023-07-09T12:29:20;97688.28;;;32.31;30.13
21869;BME280;11099;41.564;23.296;2023-07-09T12:31:45;97751.91;;;32.80;30.38
21869;BME280;11099;41.564;23.296;2023-07-09T12:34:14;97749.03;;;32.84;29.54
21869;BME280;11099;41.564;23.296;2023-07-09T12:36:46;97729.84;;;32.80;29.07
21869;BME280;11099;41.564;23.296;2023-07-09T12:39:14;97719.16;;;32.60;29.55
21869;BME280;11099;41.564;23.296;2023-07-09T12:41:42;97726.00;;;32.77;30.06
21869;BME280;11099;41.564;23.296;2023-07-09T12:44:20;97712.84;;;33.25;28.83
21869;BME280;11099;41.564;23.296;2023-07-09T12:46:48;97674.53;;;32.96;29.64
21869;BME280;11099;41.564;23.296;2023-07-09T12:49:29;97702.75;;;33.63;29.74
21869;BME280;11099;41.564;23.296;2023-07-09T12:52:01;97709.47;;;33.62;29.92
21869;BME280;11099;41.564;23.296;2023-07-09T12:54:30;97697.94;;;33.23;29.78
21869;BME280;11099;41.564;23.296;2023-07-09T12:56:56;97709.84;;;33.11;29.68
21869;BME280;11099;41.564;23.296;2023-07-09T12:59:28;97701.13;;;33.43;29.68
21869;BME280;11099;41.564;23.296;2023-07-09T13:02:16;97665.81;;;33.38;29.44
21869;BME280;11099;41.564;23.296;2023-07-09T13:04:43;97672.66;;;33.55;29.56
21869;BME280;11099;41.564;23.296;2023-07-09T13:09:51;97687.91;;;33.07;29.45
21869;BME280;11099;41.564;23.296;2023-07-09T13:12:17;97691.59;;;33.04;29.75
21869;BME280;11099;41.564;23.296;2023-07-09T13:14:52;97665.94;;;33.25;29.41
21869;BME280;11099;41.564;23.296;2023-07-09T13:17:17;97603.50;;;33.10;29.52
21869;BME280;11099;41.564;23.296;2023-07-09T13:19:43;97664.59;;;33.30;29.74
21869;BME280;11099;41.564;23.296;2023-07-09T13:22:13;97672.19;;;33.17;28.78
21869;BME280;11099;41.564;23.296;2023-07-09T13:24:39;97658.06;;;32.84;28.70
21869;BME280;11099;41.564;23.296;2023-07-09T13:27:05;97652.94;;;32.95;29.52
21869;BME280;11099;41.564;23.296;2023-07-09T13:29:33;97626.38;;;33.19;29.36
21869;BME280;11099;41.564;23.296;2023-07-09T13:31:59;97602.03;;;33.27;29.18
21869;BME280;11099;41.564;23.296;2023-07-09T13:34:29;97606.41;;;33.06;28.40
21869;BME280;11099;41.564;23.296;2023-07-09T13:36:58;97636.53;;;33.32;29.26